createdAt,value
2023-03-11T00:03:54.635Z,2.07
2023-03-11T00:08:04.447Z,2.90
2023-03-11T00:12:13.003Z,2.53
2023-03-11T00:16:21.697Z,2.30
2023-03-11T00:20:37.075Z,2.35
2023-03-11T00:24:45.666Z,2.30
2023-03-11T00:28:55.551Z,2.50
2023-03-11T00:33:04.253Z,2.70
2023-03-11T00:37:12.870Z,1.70
2023-03-11T00:41:21.514Z,2.37
2023-03-11T00:45:49.416Z,2.00
2023-03-11T00:49:58.018Z,1.80
2023-03-11T00:54:06.588Z,2.40
2023-03-11T00:58:15.310Z,1.90
2023-03-11T01:02:24.116Z,2.30
2023-03-11T01:06:43.186Z,2.47
2023-03-11T01:11:02.796Z,2.70
2023-03-11T01:15:14.571Z,2.93
2023-03-11T01:19:23.200Z,2.05
2023-03-11T01:23:32.651Z,2.33
2023-03-11T01:27:41.377Z,3.10
2023-03-11T01:31:49.942Z,3.58
2023-03-11T01:36:17.990Z,2.50
2023-03-11T01:40:35.874Z,2.07
2023-03-11T01:44:44.560Z,3.27
2023-03-11T01:48:55.853Z,2.37
2023-03-11T01:53:06.258Z,2.93
2023-03-11T01:57:15.537Z,3.13
2023-03-11T02:01:25.786Z,3.03
2023-03-11T02:05:35.356Z,2.27
2023-03-11T02:09:44.332Z,2.57
2023-03-11T02:13:54.656Z,2.10
2023-03-11T02:18:06.415Z,2.37
2023-03-11T02:22:16.084Z,2.30
2023-03-11T02:26:30.635Z,3.70
2023-03-11T02:30:42.332Z,1.90
2023-03-11T02:34:50.864Z,2.07
2023-03-11T02:38:59.477Z,3.03
2023-03-11T02:43:11.118Z,2.47
2023-03-11T02:47:19.723Z,2.17
2023-03-11T02:51:28.267Z,2.70
2023-03-11T02:55:37.362Z,2.87
2023-03-11T02:59:46.015Z,2.63
2023-03-11T03:03:54.631Z,2.37
2023-03-11T03:08:03.582Z,2.30
2023-03-11T03:12:31.564Z,2.43
2023-03-11T03:16:48.255Z,2.17
2023-03-11T03:20:57.014Z,2.00
2023-03-11T03:25:06.499Z,3.00
2023-03-11T03:29:15.099Z,2.75
2023-03-11T03:33:23.847Z,2.30
2023-03-11T03:37:51.754Z,2.63
2023-03-11T03:42:00.328Z,2.00
2023-03-11T03:46:09.166Z,3.10
2023-03-11T03:50:19.284Z,2.47
2023-03-11T03:54:27.857Z,2.40
2023-03-11T03:58:36.702Z,2.97
2023-03-11T04:02:45.327Z,1.97
2023-03-11T04:06:55.263Z,2.20
2023-03-11T04:11:03.916Z,2.03
2023-03-11T04:15:12.879Z,2.40
2023-03-11T04:19:41.033Z,2.23
2023-03-11T04:23:49.762Z,2.70
2023-03-11T04:27:58.495Z,1.60
2023-03-11T04:32:07.764Z,2.03
2023-03-11T04:36:16.567Z,2.23
2023-03-11T04:40:25.168Z,1.83
2023-03-11T04:44:36.500Z,1.83
2023-03-11T04:48:45.110Z,1.97
2023-03-11T04:52:53.739Z,2.90
2023-03-11T04:57:02.503Z,3.37
2023-03-11T05:01:11.326Z,2.70
2023-03-11T05:05:20.463Z,2.90
2023-03-11T05:09:29.076Z,2.50
2023-03-11T05:13:37.600Z,2.90
2023-03-11T05:17:46.413Z,2.33
2023-03-11T05:21:55.138Z,2.12
2023-03-11T05:26:03.676Z,2.97
2023-03-11T05:30:12.539Z,2.73
2023-03-11T05:34:21.152Z,2.53
2023-03-11T05:38:29.719Z,3.33
2023-03-11T05:42:40.230Z,2.83
2023-03-11T05:46:48.974Z,2.93
2023-03-11T05:50:57.551Z,2.47
2023-03-11T05:55:06.777Z,2.83
2023-03-11T05:59:16.921Z,2.50
2023-03-11T06:03:45.013Z,1.97
2023-03-11T06:07:53.837Z,2.17
2023-03-11T06:12:21.827Z,2.50
2023-03-11T06:16:30.581Z,2.57
2023-03-11T06:20:39.190Z,2.17
2023-03-11T06:24:47.708Z,2.40
2023-03-11T06:28:56.336Z,2.23
2023-03-11T06:33:05.065Z,1.93
2023-03-11T06:37:13.568Z,2.67
2023-03-11T06:41:22.328Z,2.53
2023-03-11T06:45:30.978Z,2.87
2023-03-11T06:49:40.947Z,2.40
2023-03-11T06:53:53.986Z,3.60
2023-03-11T06:58:02.502Z,4.30
2023-03-11T07:02:14.687Z,3.83
2023-03-11T07:06:26.667Z,3.17
2023-03-11T07:10:35.732Z,3.37
2023-03-11T07:14:44.357Z,4.03
2023-03-11T07:18:55.076Z,2.47
2023-03-11T07:23:03.665Z,2.50
2023-03-11T07:27:12.291Z,2.40
2023-03-11T07:31:24.225Z,2.40
2023-03-11T07:35:32.862Z,2.50
2023-03-11T07:39:41.456Z,3.30
2023-03-11T07:43:50.029Z,2.40
2023-03-11T07:47:58.710Z,2.50
2023-03-11T07:52:07.714Z,2.80
2023-03-11T07:56:17.827Z,3.17
2023-03-11T08:00:26.645Z,2.70
2023-03-11T08:04:35.173Z,3.20
2023-03-11T08:08:55.788Z,2.23
2023-03-11T08:13:04.524Z,2.47
2023-03-11T08:17:13.141Z,2.10
2023-03-11T08:21:41.248Z,2.47
2023-03-11T08:26:09.827Z,1.97
2023-03-11T08:30:18.933Z,1.97
2023-03-11T08:34:28.147Z,2.23
2023-03-11T08:38:36.925Z,2.30
2023-03-11T08:42:45.612Z,2.47
2023-03-11T08:46:54.298Z,2.00
2023-03-11T08:51:02.985Z,2.30
2023-03-11T08:55:14.623Z,2.50
2023-03-11T08:59:23.253Z,2.10
2023-03-11T09:03:35.982Z,2.67
2023-03-11T09:07:44.706Z,1.90
2023-03-11T09:11:53.268Z,2.17
2023-03-11T09:16:02.170Z,1.53
2023-03-11T09:20:13.998Z,2.23
2023-03-11T09:24:22.523Z,1.83
2023-03-11T09:28:50.481Z,1.60
2023-03-11T09:32:59.343Z,2.13
2023-03-11T09:37:08.351Z,1.70
2023-03-11T09:41:20.057Z,2.93
2023-03-11T09:45:31.641Z,1.57
2023-03-11T09:49:54.834Z,2.23
2023-03-11T09:54:06.423Z,2.07
2023-03-11T09:58:54.324Z,1.60
2023-03-11T10:03:03.993Z,1.90
2023-03-11T10:07:20.580Z,1.63
2023-03-11T10:11:50.061Z,1.57
2023-03-11T10:16:31.849Z,2.00
2023-03-11T10:20:43.664Z,2.00
2023-03-11T10:25:13.093Z,2.30
2023-03-11T10:29:33.619Z,2.13
2023-03-11T10:34:04.554Z,1.83
2023-03-11T10:38:24.931Z,1.80
2023-03-11T10:42:35.189Z,2.13
2023-03-11T10:46:45.086Z,2.17
2023-03-11T10:50:59.738Z,2.20
2023-03-11T10:55:08.886Z,1.87
2023-03-11T10:59:48.127Z,2.07
2023-03-11T11:04:00.595Z,2.10
2023-03-11T11:08:15.800Z,1.93
2023-03-11T11:12:24.460Z,1.90
2023-03-11T11:16:36.275Z,1.93
2023-03-11T11:21:06.476Z,2.40
2023-03-11T11:25:38.789Z,1.70
2023-03-11T11:29:48.745Z,2.27
2023-03-11T11:34:30.041Z,2.10
2023-03-11T11:38:38.663Z,2.03
2023-03-11T11:43:07.054Z,1.60
2023-03-11T11:47:18.620Z,2.00
2023-03-11T11:51:32.812Z,2.10
2023-03-11T11:55:47.381Z,2.00
2023-03-11T11:59:57.554Z,2.10
2023-03-11T12:04:09.343Z,2.07
2023-03-11T12:08:37.840Z,2.10
2023-03-11T12:13:03.108Z,2.23
2023-03-11T12:17:13.433Z,2.30
2023-03-11T12:21:27.981Z,2.13
2023-03-11T12:25:57.417Z,2.33
2023-03-11T12:30:18.325Z,1.83
2023-03-11T12:34:28.183Z,1.90
2023-03-11T12:38:41.444Z,2.30
2023-03-11T12:42:50.050Z,1.53
2023-03-11T12:47:04.372Z,2.10
2023-03-11T12:51:35.648Z,2.07
2023-03-11T12:56:01.338Z,2.03
2023-03-11T13:00:25.067Z,2.50
2023-03-11T13:04:39.381Z,3.10
2023-03-11T13:08:56.678Z,2.60
2023-03-11T13:13:24.767Z,2.07
2023-03-11T13:17:33.384Z,1.57
2023-03-11T13:21:42.125Z,2.10
2023-03-11T13:25:56.563Z,1.80
2023-03-11T13:30:20.816Z,2.03
2023-03-11T13:34:41.252Z,2.33
2023-03-11T13:39:16.546Z,1.87
2023-03-11T13:43:26.958Z,2.00
2023-03-11T13:47:37.635Z,1.77
2023-03-11T13:51:48.425Z,1.73
2023-03-11T13:55:57.342Z,2.00
2023-03-11T14:00:10.712Z,1.90
2023-03-11T14:04:25.354Z,2.17
2023-03-11T14:08:36.232Z,2.00
2023-03-11T14:12:44.891Z,1.80
2023-03-11T14:16:53.629Z,2.07
2023-03-11T14:21:03.445Z,1.80
2023-03-11T14:25:26.761Z,1.73
2023-03-11T14:29:38.351Z,2.13
2023-03-11T14:34:00.509Z,1.80
2023-03-11T14:38:23.281Z,2.20
2023-03-11T14:42:41.106Z,1.80
2023-03-11T14:46:51.809Z,2.17
2023-03-11T14:51:03.937Z,4.63
2023-03-11T14:55:24.527Z,2.70
2023-03-11T14:59:35.468Z,2.60
2023-03-11T15:03:58.252Z,2.37
2023-03-11T15:08:07.647Z,2.20
2023-03-11T15:12:34.349Z,2.10
2023-03-11T15:16:43.147Z,2.37
2023-03-11T15:21:06.893Z,2.00
2023-03-11T15:25:21.840Z,2.77
2023-03-11T15:29:31.783Z,2.00
2023-03-11T15:33:41.739Z,2.47
2023-03-11T15:37:52.513Z,3.90
2023-03-11T15:42:09.802Z,2.43
2023-03-11T15:46:26.076Z,2.70
2023-03-11T15:50:50.465Z,2.20
2023-03-11T15:54:54.665Z,2.50
2023-03-11T15:58:55.142Z,2.20
2023-03-11T16:03:04.429Z,2.27
2023-03-11T16:07:12.954Z,3.87
2023-03-11T16:11:21.501Z,2.00
2023-03-11T16:15:32.933Z,2.70
2023-03-11T16:19:48.553Z,3.70
2023-03-11T16:23:56.336Z,2.70
2023-03-11T16:28:05.333Z,2.07
2023-03-11T16:32:14.061Z,1.93
2023-03-11T16:36:22.561Z,2.00
2023-03-11T16:40:32.581Z,2.33
2023-03-11T16:44:41.121Z,2.43
2023-03-11T16:48:49.702Z,2.50
2023-03-11T16:52:59.272Z,2.47
2023-03-11T16:57:07.843Z,2.40
2023-03-11T17:01:21.593Z,3.27
2023-03-11T17:05:30.330Z,3.60
2023-03-11T17:09:39.147Z,2.30
2023-03-11T17:13:48.166Z,3.20
2023-03-11T17:17:56.986Z,2.90
2023-03-11T17:22:05.766Z,2.50
2023-03-11T17:26:18.173Z,2.50
2023-03-11T17:30:36.503Z,2.10
2023-03-11T17:34:37.053Z,2.43
2023-03-11T17:38:47.869Z,2.23
2023-03-11T17:42:56.710Z,2.03
2023-03-11T17:47:05.273Z,2.25
2023-03-11T17:51:19.496Z,3.27
2023-03-11T17:55:28.111Z,2.33
2023-03-11T17:59:36.722Z,2.80
2023-03-11T18:03:45.336Z,1.97
2023-03-11T18:07:53.913Z,2.10
2023-03-11T18:12:02.624Z,2.53
2023-03-11T18:16:20.459Z,3.03
2023-03-11T18:20:30.237Z,2.80
2023-03-11T18:24:38.763Z,2.77
2023-03-11T18:28:47.399Z,2.43
2023-03-11T18:32:56.037Z,2.43
2023-03-11T18:37:04.919Z,2.13
2023-03-11T18:41:13.810Z,2.27
2023-03-11T18:45:26.327Z,2.30
2023-03-11T18:49:34.967Z,2.77
2023-03-11T18:53:43.603Z,2.90
2023-03-11T18:57:53.118Z,2.63
2023-03-11T19:02:01.702Z,4.17
2023-03-11T19:06:11.885Z,3.63
2023-03-11T19:10:20.496Z,4.37
2023-03-11T19:14:29.057Z,4.60
2023-03-11T19:18:38.956Z,5.73
2023-03-11T19:22:47.871Z,4.07
2023-03-11T19:26:56.471Z,4.73
2023-03-11T19:31:05.978Z,4.70
2023-03-11T19:35:16.723Z,4.57
2023-03-11T19:39:44.682Z,4.97
2023-03-11T19:43:53.323Z,5.90
2023-03-11T19:48:21.312Z,4.47
2023-03-11T19:52:29.918Z,5.40
2023-03-11T19:56:38.604Z,3.83
2023-03-11T20:01:06.753Z,4.60
2023-03-11T20:05:15.366Z,4.67
2023-03-11T20:09:23.920Z,6.30
2023-03-11T20:13:33.780Z,6.13
2023-03-11T20:17:42.378Z,6.12
2023-03-11T20:21:51.005Z,6.83
2023-03-11T20:26:19.219Z,6.07
2023-03-11T20:30:28.856Z,6.67
2023-03-11T20:34:43.922Z,5.93
2023-03-11T20:38:54.591Z,5.83
2023-03-11T20:43:03.414Z,5.50
2023-03-11T20:47:12.022Z,5.10
2023-03-11T20:51:22.638Z,6.17
2023-03-11T20:55:31.293Z,5.37
2023-03-11T20:59:39.878Z,5.60
2023-03-11T21:03:49.580Z,6.10
2023-03-11T21:07:58.286Z,5.20
2023-03-11T21:12:07.336Z,6.23
2023-03-11T21:16:16.434Z,4.37
2023-03-11T21:20:25.175Z,4.03
2023-03-11T21:24:33.932Z,4.53
2023-03-11T21:28:44.999Z,4.23
2023-03-11T21:32:53.857Z,4.80
2023-03-11T21:37:02.709Z,4.90
2023-03-11T21:41:19.406Z,4.57
2023-03-11T21:45:28.560Z,5.10
2023-03-11T21:49:38.767Z,4.83
2023-03-11T21:53:48.133Z,4.57
2023-03-11T21:57:56.780Z,4.67
2023-03-11T22:02:05.426Z,4.40
2023-03-11T22:06:14.915Z,5.27
2023-03-11T22:10:23.800Z,5.63
2023-03-11T22:14:32.557Z,6.47
2023-03-11T22:18:41.426Z,6.70
2023-03-11T22:22:50.183Z,5.60
2023-03-11T22:26:58.725Z,6.43
2023-03-11T22:31:13.545Z,5.67
2023-03-11T22:35:22.222Z,5.45
2023-03-11T22:39:30.766Z,5.30
2023-03-11T22:43:39.971Z,5.80
2023-03-11T22:47:49.654Z,5.43
2023-03-11T22:52:17.618Z,5.57
2023-03-11T22:56:45.604Z,4.60
2023-03-11T23:00:54.234Z,5.53
2023-03-11T23:05:22.730Z,5.40
2023-03-11T23:09:31.464Z,5.80
2023-03-11T23:13:41.583Z,5.47
2023-03-11T23:17:50.247Z,6.03
2023-03-11T23:21:58.880Z,5.30
2023-03-11T23:26:11.752Z,5.30
2023-03-11T23:30:20.537Z,4.67
2023-03-11T23:34:29.172Z,5.43
2023-03-11T23:38:37.961Z,5.17
2023-03-11T23:42:46.541Z,4.47
2023-03-11T23:46:55.159Z,6.70
2023-03-11T23:51:04.642Z,6.10
2023-03-11T23:55:13.417Z,5.20
2023-03-11T23:59:22.019Z,4.93
